Time;durP1;ratioP1;P1;durP2;ratioP2;P2;SDS_P1;SDS_P2;PMS_P1;PMS_P2;Temp;Humidity;BMP_temperature;BMP_pressure;BME280_temperature;BME280_humidity;BME280_pressure;Samples;Min_cycle;Max_cycle;Signal;HPM_P1;HPM_P2
2023/08/20 00:01:45;;;;;;;3.70;2.03;;;;;;;;;;5133540;28;20404;-60
2023/08/20 00:04:13;;;;;;;3.83;1.90;;;;;;;;;;5133822;28;20051;-59
2023/08/20 00:06:42;;;;;;;3.22;1.98;;;;;;;;;;5133263;28;20062;-61
2023/08/20 00:09:09;;;;;;;3.83;1.90;;;;;;;;;;5133687;28;20492;-61
2023/08/20 00:11:37;;;;;;;3.72;1.83;;;;;;;;;;5132768;27;20051;-60
2023/08/20 00:14:06;;;;;;;3.65;2.17;;;;;;;;;;5137099;27;20051;-62
2023/08/20 00:16:34;;;;;;;3.23;2.07;;;;;;;;;;5137150;27;20051;-60
2023/08/20 00:19:01;;;;;;;3.72;2.55;;;;;;;;;;5137549;27;20480;-59
2023/08/20 00:21:28;;;;;;;5.38;2.50;;;;;;;;;;5137288;27;20055;-61
2023/08/20 00:23:55;;;;;;;3.10;2.30;;;;;;;;;;5137556;27;20047;-59
2023/08/20 00:26:22;;;;;;;3.90;2.50;;;;;;;;;;5137457;27;20047;-59
2023/08/20 00:28:49;;;;;;;3.40;2.35;;;;;;;;;;5137593;27;20063;-59
2023/08/20 00:31:17;;;;;;;3.15;2.47;;;;;;;;;;5136991;27;20051;-59
2023/08/20 00:33:44;;;;;;;3.38;2.17;;;;;;;;;;5137402;27;20055;-60
2023/08/20 00:36:10;;;;;;;2.95;1.80;;;;;;;;;;5136708;27;20065;-60
2023/08/20 00:38:37;;;;;;;5.68;2.28;;;;;;;;;;5136672;27;20051;-61
2023/08/20 00:41:04;;;;;;;3.65;2.17;;;;;;;;;;5137112;27;20047;-61
2023/08/20 00:43:31;;;;;;;3.25;1.92;;;;;;;;;;5137039;27;20403;-60
2023/08/20 00:45:59;;;;;;;4.32;2.45;;;;;;;;;;5136723;27;20047;-61
2023/08/20 00:48:27;;;;;;;3.97;1.90;;;;;;;;;;5137171;27;20080;-61
2023/08/20 00:50:54;;;;;;;2.92;1.70;;;;;;;;;;5136863;27;20050;-60
2023/08/20 00:53:21;;;;;;;3.80;2.15;;;;;;;;;;5136692;27;20164;-60
2023/08/20 00:55:48;;;;;;;4.10;2.55;;;;;;;;;;5136886;27;20062;-61
2023/08/20 00:58:15;;;;;;;3.53;1.98;;;;;;;;;;5121239;27;20043;-61
2023/08/20 01:00:42;;;;;;;3.28;2.10;;;;;;;;;;5115848;28;20404;-61
2023/08/20 01:03:09;;;;;;;6.72;2.00;;;;;;;;;;5116103;28;20058;-61
2023/08/20 01:05:40;;;;;;;2.80;1.65;;;;;;;;;;5115566;28;20416;-60
2023/08/20 01:08:12;;;;;;;4.00;2.13;;;;;;;;;;5116095;28;20058;-61
2023/08/20 01:10:43;;;;;;;4.80;2.15;;;;;;;;;;5116082;28;20051;-61
2023/08/20 01:13:10;;;;;;;2.38;1.60;;;;;;;;;;5116222;28;20055;-61
2023/08/20 01:15:37;;;;;;;3.33;2.00;;;;;;;;;;5116158;28;20447;-60
2023/08/20 01:18:04;;;;;;;5.50;2.47;;;;;;;;;;5115968;28;20059;-60
2023/08/20 01:20:33;;;;;;;4.25;2.17;;;;;;;;;;5115588;28;20063;-60
2023/08/20 01:23:13;;;;;;;4.20;2.20;;;;;;;;;;5115909;28;20056;-61
2023/08/20 01:25:47;;;;;;;4.55;2.03;;;;;;;;;;5114607;28;20059;-61
2023/08/20 01:28:26;;;;;;;3.38;2.25;;;;;;;;;;5115681;28;20047;-61
2023/08/20 01:30:53;;;;;;;;;;;;;;;;;;5115700;28;20054;-61
2023/08/20 01:33:20;;;;;;;3.28;2.03;;;;;;;;;;5115534;28;19927;-61
2023/08/20 01:35:47;;;;;;;3.33;2.03;;;;;;;;;;5115275;28;20527;-61
2023/08/20 01:38:14;;;;;;;2.97;1.65;;;;;;;;;;5115151;28;20047;-61
2023/08/20 01:40:40;;;;;;;2.70;2.15;;;;;;;;;;5115539;28;20055;-60
2023/08/20 01:43:08;;;;;;;3.08;2.10;;;;;;;;;;5115262;28;20055;-61
2023/08/20 01:45:36;;;;;;;3.60;2.20;;;;;;;;;;5115093;28;20051;-61
2023/08/20 01:48:03;;;;;;;3.60;2.07;;;;;;;;;;5114982;28;20484;-60
2023/08/20 01:50:30;;;;;;;3.33;2.25;;;;;;;;;;5114894;28;20059;-61
2023/08/20 01:52:57;;;;;;;8.35;2.55;;;;;;;;;;5115678;28;20062;-60
2023/08/20 01:55:24;;;;;;;3.25;2.15;;;;;;;;;;5134232;27;20062;-60
2023/08/20 01:57:51;;;;;;;3.97;1.90;;;;;;;;;;5135625;27;20059;-60
2023/08/20 02:00:17;;;;;;;4.38;1.80;;;;;;;;;;5135569;27;20047;-61
2023/08/20 02:02:45;;;;;;;3.33;1.85;;;;;;;;;;5135623;27;20065;-60
2023/08/20 02:05:12;;;;;;;2.40;1.30;;;;;;;;;;5135398;27;20047;-61
2023/08/20 02:07:39;;;;;;;4.05;2.10;;;;;;;;;;5135380;27;20058;-61
2023/08/20 02:10:07;;;;;;;2.15;1.70;;;;;;;;;;5135566;27;20499;-60
2023/08/20 02:12:33;;;;;;;3.72;1.83;;;;;;;;;;5135398;27;20387;-60
2023/08/20 02:14:59;;;;;;;3.05;1.80;;;;;;;;;;5135095;27;20055;-60
2023/08/20 02:17:26;;;;;;;2.15;1.50;;;;;;;;;;5135108;27;20391;-60
2023/08/20 02:19:54;;;;;;;2.38;1.60;;;;;;;;;;5134908;27;20408;-60
2023/08/20 02:22:21;;;;;;;4.18;1.90;;;;;;;;;;5134799;27;20051;-60
2023/08/20 02:24:48;;;;;;;5.35;2.42;;;;;;;;;;5135145;27;20054;-60
2023/08/20 02:27:15;;;;;;;2.70;1.92;;;;;;;;;;5135043;27;20047;-60
2023/08/20 02:29:42;;;;;;;3.22;1.65;;;;;;;;;;5134735;27;20055;-60
2023/08/20 02:32:08;;;;;;;3.17;2.40;;;;;;;;;;5134908;27;20051;-60
2023/08/20 02:34:35;;;;;;;2.97;1.60;;;;;;;;;;5134755;27;20062;-60
2023/08/20 02:37:03;;;;;;;3.90;1.90;;;;;;;;;;5133928;27;20066;-61
2023/08/20 02:39:31;;;;;;;3.38;1.83;;;;;;;;;;5134769;27;20483;-60
2023/08/20 02:41:58;;;;;;;3.40;2.03;;;;;;;;;;5134530;27;20050;-61
2023/08/20 02:44:24;;;;;;;3.05;1.73;;;;;;;;;;5134886;27;20484;-60
2023/08/20 02:46:51;;;;;;;2.83;2.05;;;;;;;;;;5134408;27;20054;-61
2023/08/20 02:49:18;;;;;;;3.28;1.48;;;;;;;;;;5134842;27;20058;-60
2023/08/20 02:51:45;;;;;;;5.28;2.28;;;;;;;;;;5134509;27;20054;-61
2023/08/20 02:54:13;;;;;;;2.55;1.80;;;;;;;;;;5134397;27;20051;-61
2023/08/20 02:56:40;;;;;;;4.57;2.17;;;;;;;;;;5134202;27;20491;-60
2023/08/20 02:59:06;;;;;;;2.20;1.70;;;;;;;;;;5134364;27;20051;-61
2023/08/20 03:01:33;;;;;;;4.18;1.85;;;;;;;;;;5134236;27;20411;-60
2023/08/20 03:04:00;;;;;;;5.32;2.38;;;;;;;;;;5134385;27;20422;-61
2023/08/20 03:06:27;;;;;;;2.90;1.70;;;;;;;;;;5133846;27;20051;-60
2023/08/20 03:08:53;;;;;;;2.08;1.40;;;;;;;;;;5134268;27;20051;-61
2023/08/20 03:11:22;;;;;;;2.88;2.05;;;;;;;;;;5134143;27;20047;-61
2023/08/20 03:13:48;;;;;;;3.30;1.95;;;;;;;;;;5133953;27;20051;-61
2023/08/20 03:16:15;;;;;;;4.03;2.33;;;;;;;;;;5134017;27;20157;-60
2023/08/20 03:18:42;;;;;;;3.92;2.08;;;;;;;;;;5134045;27;20057;-60
2023/08/20 03:21:09;;;;;;;3.92;1.92;;;;;;;;;;5133842;27;20392;-60
2023/08/20 03:23:36;;;;;;;3.08;2.10;;;;;;;;;;5133879;27;20047;-60
2023/08/20 03:26:03;;;;;;;3.42;1.95;;;;;;;;;;5133879;27;20419;-60
2023/08/20 03:28:31;;;;;;;2.90;1.80;;;;;;;;;;5133809;27;20047;-60
2023/08/20 03:31:00;;;;;;;3.20;2.10;;;;;;;;;;5133631;27;20050;-61
2023/08/20 03:33:27;;;;;;;3.90;2.25;;;;;;;;;;5133721;27;20395;-61
2023/08/20 03:35:53;;;;;;;3.53;2.30;;;;;;;;;;5133238;27;20050;-61
2023/08/20 03:38:20;;;;;;;3.22;2.05;;;;;;;;;;5133755;27;20053;-60
2023/08/20 03:40:47;;;;;;;3.72;1.90;;;;;;;;;;5133591;27;20502;-61
2023/08/20 03:43:14;;;;;;;3.22;1.90;;;;;;;;;;5133648;27;20503;-60
2023/08/20 03:45:42;;;;;;;3.58;2.03;;;;;;;;;;5133277;27;20050;-61
2023/08/20 03:48:09;;;;;;;4.43;2.57;;;;;;;;;;5132900;27;20055;-60
2023/08/20 03:50:36;;;;;;;3.10;1.95;;;;;;;;;;5133497;27;20062;-60
2023/08/20 03:53:03;;;;;;;4.18;2.42;;;;;;;;;;5132968;27;20069;-61
2023/08/20 03:55:30;;;;;;;3.53;2.25;;;;;;;;;;5133097;27;20484;-60
2023/08/20 03:57:56;;;;;;;3.28;2.08;;;;;;;;;;5133430;27;20047;-60
2023/08/20 04:00:23;;;;;;;3.33;2.15;;;;;;;;;;5133080;27;20078;-61
2023/08/20 04:02:51;;;;;;;6.63;2.35;;;;;;;;;;5133069;28;20047;-60
2023/08/20 04:05:18;;;;;;;4.38;2.03;;;;;;;;;;5132883;28;20431;-60
2023/08/20 04:07:45;;;;;;;3.33;2.00;;;;;;;;;;5133052;28;20051;-60
2023/08/20 04:10:12;;;;;;;3.08;1.95;;;;;;;;;;5133050;28;20051;-60
2023/08/20 04:12:39;;;;;;;4.60;2.53;;;;;;;;;;5133153;28;20047;-61
2023/08/20 04:15:06;;;;;;;3.65;1.73;;;;;;;;;;5132980;28;20388;-60
2023/08/20 04:17:32;;;;;;;3.30;1.63;;;;;;;;;;5133212;28;20058;-60
2023/08/20 04:20:01;;;;;;;4.60;2.33;;;;;;;;;;5133283;28;20066;-60
2023/08/20 04:22:30;;;;;;;2.60;2.17;;;;;;;;;;5132695;28;20054;-60
2023/08/20 04:24:57;;;;;;;5.25;1.73;;;;;;;;;;5133206;28;20058;-60
2023/08/20 04:27:23;;;;;;;4.15;2.55;;;;;;;;;;5133143;28;20062;-60
2023/08/20 04:29:50;;;;;;;3.45;2.08;;;;;;;;;;5132896;28;20051;-60
2023/08/20 04:32:17;;;;;;;4.93;2.42;;;;;;;;;;5133126;28;20054;-60
2023/08/20 04:34:46;;;;;;;2.67;1.85;;;;;;;;;;5133072;28;20047;-60
2023/08/20 04:37:14;;;;;;;3.38;1.90;;;;;;;;;;5132800;28;20046;-59
2023/08/20 04:39:41;;;;;;;3.08;1.90;;;;;;;;;;5132876;28;20054;-60
2023/08/20 04:42:07;;;;;;;3.70;1.70;;;;;;;;;;5132848;28;20047;-60
2023/08/20 04:44:34;;;;;;;3.05;1.73;;;;;;;;;;5132965;28;20065;-60
2023/08/20 04:47:02;;;;;;;4.13;1.88;;;;;;;;;;5133247;28;20051;-60
2023/08/20 04:49:30;;;;;;;2.60;2.13;;;;;;;;;;5133015;28;20047;-61
2023/08/20 04:51:56;;;;;;;2.58;1.55;;;;;;;;;;5132961;28;20074;-60
2023/08/20 04:54:24;;;;;;;2.97;1.85;;;;;;;;;;5133052;28;20051;-60
2023/08/20 04:56:51;;;;;;;2.72;1.80;;;;;;;;;;5132539;28;20058;-60
2023/08/20 04:59:18;;;;;;;3.58;2.13;;;;;;;;;;5134817;27;20055;-61
2023/08/20 05:01:45;;;;;;;4.57;2.55;;;;;;;;;;5136421;27;20367;-61
2023/08/20 05:04:12;;;;;;;4.93;2.60;;;;;;;;;;5136510;27;20073;-60
2023/08/20 05:06:38;;;;;;;4.35;1.90;;;;;;;;;;5136354;27;20058;-61
2023/08/20 05:09:05;;;;;;;3.47;1.70;;;;;;;;;;5136510;27;20051;-60
2023/08/20 05:11:33;;;;;;;2.80;1.90;;;;;;;;;;5136212;27;20055;-59
2023/08/20 05:14:01;;;;;;;5.10;2.38;;;;;;;;;;5136281;27;20433;-60
2023/08/20 05:16:28;;;;;;;3.22;2.05;;;;;;;;;;5136050;27;20051;-61
2023/08/20 05:18:54;;;;;;;4.28;2.25;;;;;;;;;;5136319;27;20098;-60
2023/08/20 05:21:21;;;;;;;4.38;2.33;;;;;;;;;;5136233;27;20062;-61
2023/08/20 05:23:48;;;;;;;4.72;2.90;;;;;;;;;;5136180;27;20051;-61
2023/08/20 05:26:15;;;;;;;3.85;2.22;;;;;;;;;;5136111;27;20054;-60
2023/08/20 05:28:43;;;;;;;5.47;2.35;;;;;;;;;;5136084;27;20059;-60
2023/08/20 05:31:10;;;;;;;4.18;2.60;;;;;;;;;;5135825;27;20147;-60
2023/08/20 05:33:37;;;;;;;3.65;2.30;;;;;;;;;;5135539;27;20043;-61
2023/08/20 05:36:04;;;;;;;3.42;1.90;;;;;;;;;;5135560;27;20062;-60
2023/08/20 05:38:31;;;;;;;4.05;2.55;;;;;;;;;;5136013;27;20069;-60
2023/08/20 05:40:57;;;;;;;3.83;2.42;;;;;;;;;;5135435;27;20050;-61
2023/08/20 05:43:24;;;;;;;3.85;2.38;;;;;;;;;;5135632;27;20043;-60
2023/08/20 05:45:52;;;;;;;3.55;2.30;;;;;;;;;;5135444;27;20063;-60
2023/08/20 05:48:19;;;;;;;3.85;2.67;;;;;;;;;;5135544;27;20392;-60
2023/08/20 05:50:46;;;;;;;3.97;2.35;;;;;;;;;;5135172;27;20055;-61
2023/08/20 05:53:13;;;;;;;4.03;2.47;;;;;;;;;;5135319;27;20047;-60
2023/08/20 05:55:40;;;;;;;4.75;2.58;;;;;;;;;;5135154;27;20051;-60
2023/08/20 05:58:07;;;;;;;3.42;2.45;;;;;;;;;;5135210;27;20058;-60
2023/08/20 06:00:33;;;;;;;4.15;2.30;;;;;;;;;;5135392;27;20062;-60
2023/08/20 06:03:02;;;;;;;2.70;1.80;;;;;;;;;;5135138;27;20051;-60
2023/08/20 06:05:28;;;;;;;4.63;1.95;;;;;;;;;;5134966;27;20055;-61
2023/08/20 06:07:55;;;;;;;3.92;2.15;;;;;;;;;;5135033;27;20058;-61
2023/08/20 06:10:22;;;;;;;3.90;2.45;;;;;;;;;;5134461;27;20051;-61
2023/08/20 06:12:49;;;;;;;4.10;2.42;;;;;;;;;;5135000;27;20463;-60
2023/08/20 06:15:15;;;;;;;4.05;2.28;;;;;;;;;;5135105;27;20078;-61
2023/08/20 06:17:42;;;;;;;4.63;2.20;;;;;;;;;;5134879;27;20055;-61
2023/08/20 06:20:11;;;;;;;3.60;2.42;;;;;;;;;;5135163;27;20407;-61
2023/08/20 06:22:38;;;;;;;2.97;2.40;;;;;;;;;;5134912;27;20050;-60
2023/08/20 06:25:05;;;;;;;3.00;1.98;;;;;;;;;;5134998;27;20054;-61
2023/08/20 06:27:32;;;;;;;3.92;2.55;;;;;;;;;;5134698;27;20051;-61
2023/08/20 06:30:00;;;;;;;3.38;2.03;;;;;;;;;;5134636;27;20415;-61
2023/08/20 06:32:26;;;;;;;3.55;2.47;;;;;;;;;;5134446;27;20391;-60
2023/08/20 06:34:53;;;;;;;3.70;2.40;;;;;;;;;;5134210;27;20055;-60
2023/08/20 06:37:22;;;;;;;3.75;2.40;;;;;;;;;;5134617;27;20086;-61
2023/08/20 06:39:48;;;;;;;4.67;2.93;;;;;;;;;;5134712;27;20066;-61
2023/08/20 06:42:15;;;;;;;4.05;2.70;;;;;;;;;;5134121;27;20058;-61
2023/08/20 06:44:42;;;;;;;4.53;3.05;;;;;;;;;;5134551;27;20408;-61
2023/08/20 06:47:09;;;;;;;5.53;2.83;;;;;;;;;;5134039;27;20388;-61
2023/08/20 06:49:35;;;;;;;4.57;3.13;;;;;;;;;;5134042;27;20058;-60
2023/08/20 06:52:02;;;;;;;5.30;2.58;;;;;;;;;;5134081;27;20058;-61
2023/08/20 06:54:30;;;;;;;4.45;2.72;;;;;;;;;;5134134;27;20047;-61
2023/08/20 06:56:57;;;;;;;7.00;2.33;;;;;;;;;;5133749;27;20407;-61
2023/08/20 06:59:24;;;;;;;5.18;3.08;;;;;;;;;;5134573;27;20058;-61
2023/08/20 07:01:51;;;;;;;5.70;3.17;;;;;;;;;;5133973;27;20058;-61
2023/08/20 07:04:18;;;;;;;4.05;2.38;;;;;;;;;;5134396;27;20066;-61
2023/08/20 07:06:44;;;;;;;4.32;2.42;;;;;;;;;;5133704;27;20070;-61
2023/08/20 07:09:11;;;;;;;4.30;2.90;;;;;;;;;;5134234;27;20491;-60
2023/08/20 07:11:39;;;;;;;4.93;2.17;;;;;;;;;;5133999;27;20058;-61
2023/08/20 07:14:06;;;;;;;4.72;2.75;;;;;;;;;;5134278;27;20051;-60
2023/08/20 07:16:33;;;;;;;4.85;3.05;;;;;;;;;;5133879;27;20062;-61
2023/08/20 07:19:00;;;;;;;3.20;2.45;;;;;;;;;;5134035;27;20055;-61
2023/08/20 07:21:27;;;;;;;4.88;2.40;;;;;;;;;;5133886;27;20405;-61
2023/08/20 07:23:53;;;;;;;3.78;2.00;;;;;;;;;;5134000;27;20051;-61
2023/08/20 07:26:20;;;;;;;6.10;2.97;;;;;;;;;;5133876;27;20066;-61
2023/08/20 07:28:58;;;;;;;3.85;2.47;;;;;;;;;;5133908;27;20495;-60
2023/08/20 07:31:25;;;;;;;5.43;3.08;;;;;;;;;;5133511;27;20070;-61
2023/08/20 07:33:52;;;;;;;4.30;2.97;;;;;;;;;;5134008;27;20051;-61
2023/08/20 07:36:21;;;;;;;4.55;2.70;;;;;;;;;;5133288;27;20062;-61
2023/08/20 07:38:48;;;;;;;4.35;2.65;;;;;;;;;;5133659;27;20058;-61
2023/08/20 07:41:15;;;;;;;4.95;1.90;;;;;;;;;;5133493;27;20051;-61
2023/08/20 07:43:42;;;;;;;4.57;2.28;;;;;;;;;;5133517;27;20043;-58
2023/08/20 07:46:10;;;;;;;4.80;2.30;;;;;;;;;;5133595;27;20051;-61
2023/08/20 07:48:37;;;;;;;4.60;2.50;;;;;;;;;;5133761;27;20055;-60
2023/08/20 07:51:04;;;;;;;5.10;2.72;;;;;;;;;;5133502;27;20051;-60
2023/08/20 07:53:31;;;;;;;3.83;2.50;;;;;;;;;;5133512;27;20050;-60
2023/08/20 07:55:58;;;;;;;3.75;2.30;;;;;;;;;;5133201;27;20046;-60
2023/08/20 07:58:25;;;;;;;4.90;2.90;;;;;;;;;;5133399;27;20399;-62
2023/08/20 08:00:52;;;;;;;3.67;2.28;;;;;;;;;;5133414;27;20530;-61
2023/08/20 08:03:20;;;;;;;5.03;2.80;;;;;;;;;;5133319;27;20484;-61
2023/08/20 08:05:47;;;;;;;5.28;2.50;;;;;;;;;;5133169;28;20047;-61
2023/08/20 08:08:14;;;;;;;4.88;2.83;;;;;;;;;;5133569;28;20062;-61
2023/08/20 08:10:44;;;;;;;3.05;2.38;;;;;;;;;;5133433;28;20054;-61
2023/08/20 08:13:11;;;;;;;3.60;2.47;;;;;;;;;;5133191;28;20051;-61
2023/08/20 08:15:38;;;;;;;4.47;2.95;;;;;;;;;;5133203;28;20484;-61
2023/08/20 08:18:05;;;;;;;5.13;2.63;;;;;;;;;;5133018;28;20066;-61
2023/08/20 08:20:33;;;;;;;4.13;3.08;;;;;;;;;;5132899;28;20043;-62
2023/08/20 08:23:03;;;;;;;4.15;3.22;;;;;;;;;;5133108;28;20058;-61
2023/08/20 08:25:30;;;;;;;4.30;2.72;;;;;;;;;;5132773;28;20051;-62
2023/08/20 08:27:57;;;;;;;4.15;2.50;;;;;;;;;;5132969;28;20058;-61
2023/08/20 08:30:24;;;;;;;4.13;2.90;;;;;;;;;;5132932;28;20055;-61
2023/08/20 08:32:50;;;;;;;4.43;2.55;;;;;;;;;;5132757;27;20047;-62
2023/08/20 08:35:17;;;;;;;4.25;2.72;;;;;;;;;;5136318;27;20074;-62
2023/08/20 08:37:46;;;;;;;3.67;2.63;;;;;;;;;;5136922;27;20404;-62
2023/08/20 08:40:13;;;;;;;3.22;2.13;;;;;;;;;;5137040;27;20461;-62
2023/08/20 08:42:41;;;;;;;2.92;2.00;;;;;;;;;;5136789;27;20054;-59
2023/08/20 08:45:09;;;;;;;4.35;2.72;;;;;;;;;;5136739;27;20047;-59
2023/08/20 08:47:37;;;;;;;5.88;2.83;;;;;;;;;;5136804;27;20488;-59
2023/08/20 08:50:05;;;;;;;5.50;2.78;;;;;;;;;;5136565;27;20058;-60
2023/08/20 08:52:32;;;;;;;3.58;2.47;;;;;;;;;;5136906;27;20058;-60
2023/08/20 08:55:00;;;;;;;3.25;2.35;;;;;;;;;;5136706;27;20047;-60
2023/08/20 08:57:27;;;;;;;3.60;1.90;;;;;;;;;;5136546;27;20047;-60
2023/08/20 08:59:54;;;;;;;3.47;1.67;;;;;;;;;;5136595;27;20062;-60
2023/08/20 09:02:22;;;;;;;4.72;2.17;;;;;;;;;;5136514;27;20051;-61
2023/08/20 09:04:48;;;;;;;5.32;2.30;;;;;;;;;;5136679;27;20107;-61
2023/08/20 09:07:16;;;;;;;2.15;1.45;;;;;;;;;;5136334;27;20055;-60
2023/08/20 09:09:43;;;;;;;2.25;1.38;;;;;;;;;;5136239;27;20047;-60
2023/08/20 09:12:10;;;;;;;;;;;;;;;;;;5136896;27;20054;-61
2023/08/20 09:14:38;;;;;;;2.58;1.55;;;;;;;;;;5136486;27;19926;-61
2023/08/20 09:17:05;;;;;;;4.35;1.80;;;;;;;;;;5136301;27;20400;-60
2023/08/20 09:19:36;;;;;;;2.50;1.50;;;;;;;;;;5136340;27;20070;-61
2023/08/20 09:22:03;;;;;;;2.22;1.17;;;;;;;;;;5136353;27;20051;-62
2023/08/20 09:24:33;;;;;;;3.10;1.80;;;;;;;;;;5135980;27;20051;-61
2023/08/20 09:27:00;;;;;;;2.95;1.55;;;;;;;;;;5135832;27;20388;-61
2023/08/20 09:29:27;;;;;;;2.97;2.00;;;;;;;;;;5136516;27;20058;-61
2023/08/20 09:32:03;;;;;;;2.60;1.83;;;;;;;;;;5136177;27;20047;-61
2023/08/20 09:34:37;;;;;;;2.63;1.73;;;;;;;;;;5136216;27;20054;-61
2023/08/20 09:37:04;;;;;;;2.42;1.58;;;;;;;;;;5135564;27;20051;-62
2023/08/20 09:39:30;;;;;;;2.75;1.25;;;;;;;;;;5135928;27;20419;-62
2023/08/20 09:41:59;;;;;;;1.70;1.45;;;;;;;;;;5136034;27;20058;-62
2023/08/20 09:44:26;;;;;;;7.55;1.38;;;;;;;;;;5135896;27;20051;-62
2023/08/20 09:46:54;;;;;;;2.20;1.45;;;;;;;;;;5134700;27;20058;-62
2023/08/20 09:49:22;;;;;;;2.28;1.20;;;;;;;;;;5135058;27;20058;-62
2023/08/20 09:51:50;;;;;;;2.33;1.60;;;;;;;;;;5135792;27;20058;-62
2023/08/20 09:54:20;;;;;;;2.03;1.20;;;;;;;;;;5135535;27;20404;-61
2023/08/20 09:56:52;;;;;;;2.00;1.00;;;;;;;;;;5135686;27;20051;-61
2023/08/20 09:59:19;;;;;;;1.65;1.20;;;;;;;;;;5135963;27;20076;-62
2023/08/20 10:01:47;;;;;;;2.30;1.27;;;;;;;;;;5135514;27;20055;-61
2023/08/20 10:04:14;;;;;;;2.55;0.98;;;;;;;;;;5135655;27;20043;-61
2023/08/20 10:06:43;;;;;;;2.30;1.20;;;;;;;;;;5135537;27;20058;-61
2023/08/20 10:09:10;;;;;;;1.70;1.35;;;;;;;;;;5135648;27;20055;-62
2023/08/20 10:11:38;;;;;;;2.17;1.30;;;;;;;;;;5135414;27;20368;-61
2023/08/20 10:14:04;;;;;;;2.92;1.60;;;;;;;;;;5135371;27;20047;-61
2023/08/20 10:16:33;;;;;;;2.65;1.27;;;;;;;;;;5135252;27;20055;-61
2023/08/20 10:19:02;;;;;;;2.10;1.33;;;;;;;;;;5135210;27;20078;-61
2023/08/20 10:21:29;;;;;;;2.35;1.42;;;;;;;;;;5135044;27;20055;-61
2023/08/20 10:23:57;;;;;;;2.55;1.50;;;;;;;;;;5135118;27;20058;-61
2023/08/20 10:26:25;;;;;;;2.88;1.63;;;;;;;;;;5134936;27;20051;-61
2023/08/20 10:28:52;;;;;;;2.63;1.63;;;;;;;;;;5134955;27;20062;-61
2023/08/20 10:31:19;;;;;;;2.00;1.55;;;;;;;;;;5134778;27;20063;-61
2023/08/20 10:33:55;;;;;;;2.63;2.08;;;;;;;;;;5134849;27;20496;-61
2023/08/20 10:36:26;;;;;;;2.13;1.60;;;;;;;;;;5134338;27;20062;-61
2023/08/20 10:38:55;;;;;;;1.90;1.20;;;;;;;;;;5134815;27;20392;-61
2023/08/20 10:41:26;;;;;;;2.58;1.42;;;;;;;;;;5134763;27;20055;-61
2023/08/20 10:43:53;;;;;;;2.80;1.10;;;;;;;;;;5134877;27;20070;-61
2023/08/20 10:46:21;;;;;;;2.00;1.30;;;;;;;;;;5134665;27;20411;-61
2023/08/20 10:48:49;;;;;;;2.35;1.85;;;;;;;;;;5134607;27;20047;-60
2023/08/20 10:51:17;;;;;;;1.80;1.27;;;;;;;;;;5134361;27;20412;-60
2023/08/20 10:53:48;;;;;;;2.65;1.60;;;;;;;;;;5134234;27;20051;-61
2023/08/20 10:56:16;;;;;;;3.30;1.52;;;;;;;;;;5133978;27;20054;-61
2023/08/20 10:58:45;;;;;;;2.00;1.33;;;;;;;;;;5134131;27;20051;-61
2023/08/20 11:01:16;;;;;;;2.20;1.65;;;;;;;;;;5134260;27;20058;-61
2023/08/20 11:03:43;;;;;;;2.53;1.50;;;;;;;;;;5134136;27;20047;-61
2023/08/20 11:06:10;;;;;;;2.70;1.73;;;;;;;;;;5133718;27;20047;-61
2023/08/20 11:08:37;;;;;;;2.22;1.55;;;;;;;;;;5134045;27;20047;-61
2023/08/20 11:11:04;;;;;;;;;;;;;;;;;;5134560;27;20047;-61
2023/08/20 11:13:34;;;;;;;2.50;1.40;;;;;;;;;;5134044;27;19920;-61
2023/08/20 11:16:10;;;;;;;2.60;1.60;;;;;;;;;;5133841;27;20043;-61
2023/08/20 11:18:37;;;;;;;1.90;1.30;;;;;;;;;;5131850;27;20050;-61
2023/08/20 11:21:04;;;;;;;1.77;1.58;;;;;;;;;;5133989;27;20051;-61
2023/08/20 11:23:32;;;;;;;2.17;1.60;;;;;;;;;;5133994;27;20491;-61
2023/08/20 11:25:58;;;;;;;2.33;1.25;;;;;;;;;;5133850;27;20050;-60
2023/08/20 11:28:25;;;;;;;;;;;;;;;;;;5133858;27;20051;-61
2023/08/20 11:31:13;;;;;;;2.25;1.15;;;;;;;;;;5133660;27;19919;-61
2023/08/20 11:33:42;;;;;;;3.28;1.70;;;;;;;;;;5133470;27;20051;-61
2023/08/20 11:36:09;;;;;;;2.45;1.50;;;;;;;;;;5133237;27;20534;-61
2023/08/20 11:38:35;;;;;;;3.05;1.30;;;;;;;;;;5133497;27;20051;-60
2023/08/20 11:41:02;;;;;;;1.67;1.20;;;;;;;;;;5133572;27;20479;-60
2023/08/20 11:43:29;;;;;;;2.22;1.42;;;;;;;;;;5133750;27;20057;-60
2023/08/20 11:45:56;;;;;;;1.80;1.20;;;;;;;;;;5133262;27;20054;-60
2023/08/20 11:48:23;;;;;;;2.07;1.40;;;;;;;;;;5133581;27;20051;-60
2023/08/20 11:50:51;;;;;;;3.13;1.50;;;;;;;;;;5133071;27;20058;-60
2023/08/20 11:53:22;;;;;;;2.15;1.40;;;;;;;;;;5133292;27;20404;-60
2023/08/20 11:55:48;;;;;;;2.35;1.35;;;;;;;;;;5132837;27;20058;-61
2023/08/20 11:58:15;;;;;;;2.38;1.70;;;;;;;;;;5133197;27;20047;-60
2023/08/20 12:00:49;;;;;;;1.87;1.20;;;;;;;;;;5132892;27;20055;-61
2023/08/20 12:03:15;;;;;;;1.58;1.15;;;;;;;;;;5132885;27;20047;-61
2023/08/20 12:05:43;;;;;;;2.20;1.48;;;;;;;;;;5132855;28;20063;-61
2023/08/20 12:08:09;;;;;;;;;;;;;;;;;;5133067;27;20488;-61
2023/08/20 12:10:42;;;;;;;2.55;1.40;;;;;;;;;;5133418;28;19919;-61
2023/08/20 12:13:09;;;;;;;3.17;1.77;;;;;;;;;;5133223;28;20059;-62
2023/08/20 12:15:36;;;;;;;2.55;1.52;;;;;;;;;;5132843;28;20074;-61
2023/08/20 12:18:04;;;;;;;2.05;1.63;;;;;;;;;;5133157;28;20051;-61
2023/08/20 12:20:32;;;;;;;2.55;1.83;;;;;;;;;;5132693;28;20058;-61
2023/08/20 12:23:00;;;;;;;2.08;1.45;;;;;;;;;;5133061;28;20051;-61
2023/08/20 12:25:27;;;;;;;3.80;2.35;;;;;;;;;;5132988;28;20055;-61
2023/08/20 12:27:53;;;;;;;;;;;;;;;;;;5133414;28;20047;-61
2023/08/20 12:30:20;;;;;;;;;;;;;;;;;;5133622;28;19953;-61
2023/08/20 12:32:48;;;;;;;2.05;1.60;;;;;;;;;;5132750;28;20276;-61
2023/08/20 12:35:15;;;;;;;1.80;1.48;;;;;;;;;;5132264;28;20047;-61
2023/08/20 12:37:42;;;;;;;1.42;1.10;;;;;;;;;;5132744;28;20051;-61
2023/08/20 12:40:10;;;;;;;2.55;1.75;;;;;;;;;;5132891;28;20484;-61
2023/08/20 12:42:37;;;;;;;2.50;1.98;;;;;;;;;;5132770;28;20051;-61
2023/08/20 12:45:05;;;;;;;2.30;1.40;;;;;;;;;;5132932;28;20507;-61
2023/08/20 12:47:32;;;;;;;2.28;1.45;;;;;;;;;;5132530;28;20058;-61
2023/08/20 12:50:00;;;;;;;2.65;1.63;;;;;;;;;;5132828;28;20345;-61
2023/08/20 12:52:27;;;;;;;2.22;1.40;;;;;;;;;;5132668;28;20059;-61
2023/08/20 12:54:54;;;;;;;2.35;1.65;;;;;;;;;;5132288;28;20051;-61
2023/08/20 12:57:20;;;;;;;2.17;1.75;;;;;;;;;;5132726;28;20055;-61
2023/08/20 12:59:47;;;;;;;2.40;1.58;;;;;;;;;;5132360;28;20480;-61
2023/08/20 13:02:15;;;;;;;2.42;1.63;;;;;;;;;;5132461;28;20059;-61
2023/08/20 13:04:42;;;;;;;3.40;1.80;;;;;;;;;;5132711;28;20078;-61
2023/08/20 13:07:11;;;;;;;2.10;1.45;;;;;;;;;;5132703;28;20058;-61
2023/08/20 13:09:38;;;;;;;2.70;1.83;;;;;;;;;;5132435;28;20047;-61
2023/08/20 13:12:09;;;;;;;2.42;1.92;;;;;;;;;;5132594;28;20496;-61
2023/08/20 13:14:36;;;;;;;2.75;1.92;;;;;;;;;;5132559;28;20496;-61
2023/08/20 13:17:03;;;;;;;2.17;1.80;;;;;;;;;;5132291;28;20400;-61
2023/08/20 13:19:29;;;;;;;2.15;1.60;;;;;;;;;;5132536;27;20055;-61
2023/08/20 13:21:56;;;;;;;2.78;1.75;;;;;;;;;;5136024;27;20395;-61
2023/08/20 13:24:24;;;;;;;3.05;2.47;;;;;;;;;;5136111;27;20062;-61
2023/08/20 13:26:52;;;;;;;3.38;2.25;;;;;;;;;;5135547;27;20062;-60
2023/08/20 13:29:19;;;;;;;3.20;1.90;;;;;;;;;;5135985;27;20066;-60
2023/08/20 13:31:46;;;;;;;3.60;2.10;;;;;;;;;;5136045;27;20510;-62
2023/08/20 13:34:13;;;;;;;6.60;2.73;;;;;;;;;;5136012;27;20407;-61
2023/08/20 13:36:39;;;;;;;3.50;2.70;;;;;;;;;;5135211;27;20503;-61
2023/08/20 13:39:06;;;;;;;2.77;1.90;;;;;;;;;;5135748;27;20062;-60
2023/08/20 13:41:34;;;;;;;3.03;2.10;;;;;;;;;;5135439;27;20062;-61
2023/08/20 13:44:01;;;;;;;5.95;3.08;;;;;;;;;;5135543;27;20055;-61
2023/08/20 13:46:28;;;;;;;3.77;2.77;;;;;;;;;;5135506;27;20050;-60
2023/08/20 13:48:55;;;;;;;3.42;3.08;;;;;;;;;;5135325;27;20047;-60
2023/08/20 13:51:21;;;;;;;3.57;2.80;;;;;;;;;;5135001;27;20051;-60
2023/08/20 13:53:48;;;;;;;4.75;3.05;;;;;;;;;;5135293;27;20062;-60
2023/08/20 13:56:15;;;;;;;4.65;3.28;;;;;;;;;;5135020;27;20469;-60
2023/08/20 13:58:43;;;;;;;6.03;3.03;;;;;;;;;;5135173;27;20074;-60
2023/08/20 14:01:11;;;;;;;4.07;2.90;;;;;;;;;;5135031;27;20183;-60
2023/08/20 14:03:38;;;;;;;4.72;3.17;;;;;;;;;;5135190;27;20054;-60
2023/08/20 14:06:05;;;;;;;3.55;2.60;;;;;;;;;;5134696;27;20054;-60
2023/08/20 14:08:32;;;;;;;4.20;2.70;;;;;;;;;;5134950;27;20480;-60
2023/08/20 14:10:58;;;;;;;3.85;3.20;;;;;;;;;;5134566;27;20801;-60
2023/08/20 14:13:25;;;;;;;3.83;3.10;;;;;;;;;;5134937;27;20472;-60
2023/08/20 14:15:53;;;;;;;3.28;2.85;;;;;;;;;;5134306;27;20043;-60
2023/08/20 14:18:20;;;;;;;3.72;2.30;;;;;;;;;;5134292;27;20059;-60
2023/08/20 14:20:47;;;;;;;4.70;2.83;;;;;;;;;;5134432;27;20054;-60
2023/08/20 14:23:14;;;;;;;6.00;3.45;;;;;;;;;;5134180;27;20476;-60
2023/08/20 14:25:41;;;;;;;3.55;2.83;;;;;;;;;;5134070;27;20051;-59
2023/08/20 14:28:08;;;;;;;3.83;2.70;;;;;;;;;;5134296;27;20051;-60
2023/08/20 14:30:37;;;;;;;5.50;3.08;;;;;;;;;;5134134;27;20058;-60
2023/08/20 14:33:05;;;;;;;4.30;3.55;;;;;;;;;;5133720;27;20055;-60
2023/08/20 14:35:32;;;;;;;5.47;2.97;;;;;;;;;;5133859;27;20058;-60
2023/08/20 14:37:59;;;;;;;5.93;3.38;;;;;;;;;;5134251;27;20055;-60
2023/08/20 14:40:26;;;;;;;4.47;3.33;;;;;;;;;;5133749;27;20051;-60
2023/08/20 14:42:53;;;;;;;5.28;4.18;;;;;;;;;;5133944;27;20058;-60
2023/08/20 14:45:20;;;;;;;4.80;3.28;;;;;;;;;;5134019;27;20058;-60
2023/08/20 14:47:46;;;;;;;5.00;3.28;;;;;;;;;;5133715;27;20047;-60